Time;durP1;ratioP1;P1;durP2;ratioP2;P2;SDS_P1;SDS_P2;PMS_P1;PMS_P2;Temp;Humidity;BMP_temperature;BMP_pressure;BME280_temperature;BME280_humidity;BME280_pressure;Samples;Min_cycle;Max_cycle;Signal;HPM_P1;HPM_P2
2021/06/10 00:00:11;;;;;;;;;;;23.50;43.20;;;;;;1479814;40;19932;-60
2021/06/10 00:01:32;;;;;;;;;;;23.40;43.20;;;;;;1482218;40;19944;-60
2021/06/10 00:02:52;;;;;;;;;;;23.40;43.30;;;;;;1472891;40;20027;-60
2021/06/10 00:04:13;;;;;;;;;;;23.30;43.40;;;;;;1480192;40;20421;-60
2021/06/10 00:05:34;;;;;;;;;;;23.40;43.50;;;;;;1483418;40;19939;-60
2021/06/10 00:06:55;;;;;;;;;;;23.40;43.60;;;;;;1481891;40;20170;-60
2021/06/10 00:08:16;;;;;;;;;;;23.30;43.50;;;;;;1481587;40;19933;-60
2021/06/10 00:09:37;;;;;;;;;;;23.30;43.60;;;;;;1475563;40;19925;-60
2021/06/10 00:10:58;;;;;;;;;;;23.30;43.60;;;;;;1481807;40;19925;-60
2021/06/10 00:12:19;;;;;;;;;;;23.30;43.50;;;;;;1483318;40;19956;-60
2021/06/10 00:13:39;;;;;;;;;;;23.20;43.40;;;;;;1482248;40;20026;-60
2021/06/10 00:15:00;;;;;;;;;;;23.20;43.50;;;;;;1479491;40;20158;-60
2021/06/10 00:16:21;;;;;;;;;;;23.20;43.50;;;;;;1482171;40;19938;-60
2021/06/10 00:17:42;;;;;;;;;;;23.20;43.50;;;;;;1479609;40;19929;-61
2021/06/10 00:19:03;;;;;;;;;;;23.20;43.40;;;;;;1474082;40;19929;-60
2021/06/10 00:20:26;;;;;;;;;;;23.10;43.40;;;;;;1479532;40;20344;-61
2021/06/10 00:21:47;;;;;;;;;;;23.10;43.50;;;;;;1481913;40;20185;-60
2021/06/10 00:23:08;;;;;;;;;;;23.10;43.40;;;;;;1480266;40;19939;-60
2021/06/10 00:24:29;;;;;;;;;;;23.10;43.50;;;;;;1482246;40;19933;-60
2021/06/10 00:25:50;;;;;;;;;;;23.00;43.60;;;;;;1482510;40;19951;-60
2021/06/10 00:27:11;;;;;;;;;;;23.00;43.80;;;;;;1478328;40;19933;-60
2021/06/10 00:28:31;;;;;;;;;;;23.00;43.90;;;;;;1483563;40;20256;-60
2021/06/10 00:29:52;;;;;;;;;;;22.90;43.90;;;;;;1481334;40;20711;-60
2021/06/10 00:31:13;;;;;;;;;;;22.90;43.90;;;;;;1482612;40;19932;-60
2021/06/10 00:32:34;;;;;;;;;;;23.00;43.90;;;;;;1482237;40;19991;-61
2021/06/10 00:33:55;;;;;;;;;;;22.90;44.10;;;;;;1481261;40;19937;-60
2021/06/10 00:35:17;;;;;;;;;;;22.90;44.30;;;;;;1482776;40;19932;-60
2021/06/10 00:36:37;;;;;;;;;;;22.80;44.20;;;;;;1482438;40;19961;-60
2021/06/10 00:37:59;;;;;;;;;;;22.80;44.40;;;;;;1480790;40;20453;-60
2021/06/10 00:39:20;;;;;;;;;;;22.80;44.50;;;;;;1484415;40;19947;-60
2021/06/10 00:40:41;;;;;;;;;;;22.80;44.30;;;;;;1481329;40;19976;-60
2021/06/10 00:42:02;;;;;;;;;;;22.80;44.20;;;;;;1480888;40;19933;-60
2021/06/10 00:43:23;;;;;;;;;;;22.70;44.10;;;;;;1482299;40;19928;-60
2021/06/10 00:44:44;;;;;;;;;;;22.70;44.10;;;;;;1484127;40;19968;-60
2021/06/10 00:46:05;;;;;;;;;;;22.70;44.30;;;;;;1480619;40;20281;-60
2021/06/10 00:47:26;;;;;;;;;;;22.70;44.40;;;;;;1482276;40;19929;-60
2021/06/10 00:48:47;;;;;;;;;;;22.70;44.70;;;;;;1482900;40;19936;-60
2021/06/10 00:50:08;;;;;;;;;;;22.70;44.80;;;;;;1482303;40;19999;-60
2021/06/10 00:51:29;;;;;;;;;;;22.60;44.70;;;;;;1482026;40;19940;-60
2021/06/10 00:52:50;;;;;;;;;;;22.60;44.70;;;;;;1482280;40;19925;-60
2021/06/10 00:54:11;;;;;;;;;;;22.60;44.50;;;;;;1480619;40;19944;-60
2021/06/10 00:55:32;;;;;;;;;;;22.60;44.40;;;;;;1483623;40;19940;-60
2021/06/10 00:56:53;;;;;;;;;;;22.60;44.40;;;;;;1482765;40;19948;-60
2021/06/10 00:58:13;;;;;;;;;;;22.60;44.30;;;;;;1482398;40;19932;-60
2021/06/10 00:59:34;;;;;;;;;;;22.50;44.10;;;;;;1481228;40;19965;-60
2021/06/10 01:00:55;;;;;;;;;;;22.50;44.00;;;;;;1482534;40;20274;-60
2021/06/10 01:02:16;;;;;;;;;;;22.50;43.90;;;;;;1483075;40;19934;-60
2021/06/10 01:03:37;;;;;;;;;;;22.50;44.00;;;;;;1480182;40;19939;-60
2021/06/10 01:04:58;;;;;;;;;;;22.50;44.00;;;;;;1482373;40;19947;-60
2021/06/10 01:06:23;;;;;;;;;;;22.50;44.00;;;;;;1482749;40;19989;-60
2021/06/10 01:07:58;;;;;;;;;;;22.40;43.90;;;;;;1480332;40;19942;-60
2021/06/10 01:09:28;;;;;;;;;;;22.40;43.90;;;;;;1480740;40;20018;-60
2021/06/10 01:10:57;;;;;;;;;;;22.40;44.00;;;;;;1482772;40;19929;-60
2021/06/10 01:12:35;;;;;;;;;;;22.40;44.10;;;;;;1482344;40;19948;-60
2021/06/10 01:14:11;;;;;;;;;;;22.30;44.10;;;;;;1482560;40;19943;-60
2021/06/10 01:15:36;;;;;;;;;;;22.30;44.00;;;;;;1483168;40;19982;-60
2021/06/10 01:16:58;;;;;;;;;;;22.20;44.00;;;;;;1480210;40;19933;-60
2021/06/10 01:18:20;;;;;;;;;;;22.20;44.00;;;;;;1481787;40;19939;-60
2021/06/10 01:19:41;;;;;;;;;;;22.20;44.40;;;;;;1482806;40;19936;-60
2021/06/10 01:21:03;;;;;;;;;;;22.20;44.40;;;;;;1482312;40;19939;-60
2021/06/10 01:22:26;;;;;;;;;;;22.20;44.60;;;;;;1481999;40;19929;-60
2021/06/10 01:23:50;;;;;;;;;;;22.10;44.50;;;;;;1481377;40;19936;-61
2021/06/10 01:25:14;;;;;;;;;;;22.10;44.60;;;;;;1482088;40;19933;-60
2021/06/10 01:26:39;;;;;;;;;;;22.10;44.20;;;;;;1482428;40;19932;-60
2021/06/10 01:28:02;;;;;;;;;;;22.10;44.10;;;;;;1482423;40;19939;-60
2021/06/10 01:29:24;;;;;;;;;;;22.00;44.10;;;;;;1483304;40;19932;-60
2021/06/10 01:30:44;;;;;;;;;;;22.00;44.00;;;;;;1482463;40;19929;-60
2021/06/10 01:32:06;;;;;;;;;;;22.00;44.10;;;;;;1483633;40;19940;-61
2021/06/10 01:33:29;;;;;;;;;;;22.00;44.20;;;;;;1482046;40;19928;-60
2021/06/10 01:34:51;;;;;;;;;;;22.00;44.20;;;;;;1482251;40;19932;-60
2021/06/10 01:36:13;;;;;;;;;;;22.00;44.20;;;;;;1481039;40;19936;-60
2021/06/10 01:37:34;;;;;;;;;;;21.90;44.20;;;;;;1481050;40;19940;-60
2021/06/10 01:38:57;;;;;;;;;;;21.90;44.20;;;;;;1482197;40;19932;-60
2021/06/10 01:40:20;;;;;;;;;;;21.90;44.20;;;;;;1480798;40;19990;-60
2021/06/10 01:41:41;;;;;;;;;;;21.90;44.20;;;;;;1482473;40;19948;-60
2021/06/10 01:43:02;;;;;;;;;;;21.80;44.10;;;;;;1481547;40;19944;-60
2021/06/10 01:44:25;;;;;;;;;;;21.80;44.30;;;;;;1481623;40;19928;-60
2021/06/10 01:45:49;;;;;;;;;;;21.80;44.20;;;;;;1478990;40;19929;-60
2021/06/10 01:47:10;;;;;;;;;;;21.80;44.30;;;;;;1482319;40;19937;-60
2021/06/10 01:48:31;;;;;;;;;;;21.80;44.30;;;;;;1482700;40;19943;-60
2021/06/10 01:49:53;;;;;;;;;;;21.70;44.40;;;;;;1481512;40;20427;-60
2021/06/10 01:51:15;;;;;;;;;;;21.70;44.40;;;;;;1480557;40;19939;-60
2021/06/10 01:52:36;;;;;;;;;;;21.70;44.50;;;;;;1482956;39;19968;-60
2021/06/10 01:53:58;;;;;;;;;;;21.70;44.70;;;;;;1482568;40;20274;-60
2021/06/10 01:55:21;;;;;;;;;;;21.70;44.80;;;;;;1483779;40;19928;-60
2021/06/10 01:56:43;;;;;;;;;;;21.70;44.80;;;;;;1481828;40;19932;-60
2021/06/10 01:58:04;;;;;;;;;;;21.60;45.00;;;;;;1480623;40;19944;-60
2021/06/10 01:59:26;;;;;;;;;;;21.70;45.10;;;;;;1480497;40;19940;-60
2021/06/10 02:00:48;;;;;;;;;;;21.60;45.10;;;;;;1480713;40;19928;-60
2021/06/10 02:02:09;;;;;;;;;;;21.60;45.00;;;;;;1481956;40;19951;-60
2021/06/10 02:03:30;;;;;;;;;;;21.60;45.10;;;;;;1481503;40;19933;-60
2021/06/10 02:04:51;;;;;;;;;;;21.60;44.90;;;;;;1480348;40;19928;-60
2021/06/10 02:06:12;;;;;;;;;;;21.60;44.80;;;;;;1484574;40;19928;-61
2021/06/10 02:07:37;;;;;;;;;;;21.60;44.80;;;;;;1483524;40;19929;-60
2021/06/10 02:08:58;;;;;;;;;;;21.60;44.80;;;;;;1481093;40;20165;-60
2021/06/10 02:10:21;;;;;;;;;;;21.60;44.70;;;;;;1482295;40;20115;-61
2021/06/10 02:11:42;;;;;;;;;;;21.50;44.60;;;;;;1483785;40;19964;-60
2021/06/10 02:13:03;;;;;;;;;;;21.50;44.50;;;;;;1480814;40;19940;-60
2021/06/10 02:14:24;;;;;;;;;;;21.50;44.80;;;;;;1481062;40;19945;-60
2021/06/10 02:15:45;;;;;;;;;;;21.40;44.80;;;;;;1480993;40;20312;-60
2021/06/10 02:17:06;;;;;;;;;;;21.50;45.00;;;;;;1480771;40;19936;-60
2021/06/10 02:18:27;;;;;;;;;;;21.40;44.90;;;;;;1483909;40;20018;-60
2021/06/10 02:19:48;;;;;;;;;;;21.40;45.00;;;;;;1481927;40;20324;-60
2021/06/10 02:21:10;;;;;;;;;;;21.40;44.90;;;;;;1482799;40;20022;-60
2021/06/10 02:22:33;;;;;;;;;;;21.40;44.80;;;;;;1479946;40;19975;-60
2021/06/10 02:23:54;;;;;;;;;;;21.40;44.80;;;;;;1482645;40;19958;-60
2021/06/10 02:25:14;;;;;;;;;;;21.40;44.70;;;;;;1480424;40;20262;-60
2021/06/10 02:26:35;;;;;;;;;;;21.30;44.70;;;;;;1481090;40;19995;-60
2021/06/10 02:27:56;;;;;;;;;;;21.30;44.70;;;;;;1481006;40;20406;-60
2021/06/10 02:29:17;;;;;;;;;;;21.30;44.80;;;;;;1481327;40;19929;-60
2021/06/10 02:30:38;;;;;;;;;;;21.30;45.00;;;;;;1481690;40;19933;-59
2021/06/10 02:31:59;;;;;;;;;;;21.30;45.20;;;;;;1481505;40;19940;-59
2021/06/10 02:33:20;;;;;;;;;;;21.30;45.20;;;;;;1481795;40;20270;-59
2021/06/10 02:34:40;;;;;;;;;;;21.30;45.30;;;;;;1480711;40;19936;-59
2021/06/10 02:36:01;;;;;;;;;;;21.20;45.20;;;;;;1481238;40;19936;-59
2021/06/10 02:37:24;;;;;;;;;;;21.40;45.30;;;;;;1480874;40;20301;-59
2021/06/10 02:38:56;;;;;;;;;;;21.40;45.40;;;;;;1481466;40;20154;-59
2021/06/10 02:40:21;;;;;;;;;;;21.20;45.40;;;;;;1482636;40;19929;-61
2021/06/10 02:41:45;;;;;;;;;;;21.20;45.40;;;;;;1482203;40;20361;-61
2021/06/10 02:43:06;;;;;;;;;;;21.20;45.40;;;;;;1480230;40;19929;-60
2021/06/10 02:44:28;;;;;;;;;;;21.20;45.40;;;;;;1480617;40;19951;-61
2021/06/10 02:45:49;;;;;;;;;;;21.20;45.50;;;;;;1481545;40;19944;-61
2021/06/10 02:47:11;;;;;;;;;;;21.20;45.50;;;;;;1482020;40;19968;-61
2021/06/10 02:48:32;;;;;;;;;;;21.20;45.30;;;;;;1478790;40;19924;-61
2021/06/10 02:49:53;;;;;;;;;;;21.20;45.20;;;;;;1481896;40;19940;-60
2021/06/10 02:51:15;;;;;;;;;;;21.10;45.70;;;;;;1481875;40;20017;-61
2021/06/10 02:52:40;;;;;;;;;;;21.20;45.40;;;;;;1481756;40;19935;-61
2021/06/10 02:54:01;;;;;;;;;;;21.10;45.40;;;;;;1482300;40;19931;-61
2021/06/10 02:55:23;;;;;;;;;;;21.10;45.40;;;;;;1481409;40;20236;-61
2021/06/10 02:56:44;;;;;;;;;;;21.10;45.50;;;;;;1482096;40;19940;-61
2021/06/10 02:58:06;;;;;;;;;;;21.10;45.50;;;;;;1480826;40;19937;-60
2021/06/10 02:59:28;;;;;;;;;;;21.10;45.60;;;;;;1481858;40;19935;-61
2021/06/10 03:00:49;;;;;;;;;;;21.10;45.60;;;;;;1483524;40;19958;-61
2021/06/10 03:02:11;;;;;;;;;;;21.00;45.60;;;;;;1481212;40;20010;-61
2021/06/10 03:03:33;;;;;;;;;;;21.10;45.60;;;;;;1482979;40;19935;-61
2021/06/10 03:04:53;;;;;;;;;;;21.10;45.80;;;;;;1480859;40;20435;-61
2021/06/10 03:06:14;;;;;;;;;;;21.00;46.30;;;;;;1481937;40;19928;-60
2021/06/10 03:07:36;;;;;;;;;;;21.00;46.00;;;;;;1479907;40;20033;-61
2021/06/10 03:08:57;;;;;;;;;;;21.00;45.90;;;;;;1481470;40;19972;-60
2021/06/10 03:10:19;;;;;;;;;;;21.00;45.90;;;;;;1483293;40;19928;-60
2021/06/10 03:11:41;;;;;;;;;;;21.00;45.90;;;;;;1482333;40;19936;-60
2021/06/10 03:13:02;;;;;;;;;;;21.00;45.80;;;;;;1480529;40;20258;-60
2021/06/10 03:14:23;;;;;;;;;;;21.00;45.90;;;;;;1480526;40;19936;-60
2021/06/10 03:15:44;;;;;;;;;;;20.90;45.90;;;;;;1481337;40;19943;-61
2021/06/10 03:17:05;;;;;;;;;;;21.00;45.90;;;;;;1480177;40;19932;-60
2021/06/10 03:18:26;;;;;;;;;;;21.00;45.90;;;;;;1480236;40;19941;-60
2021/06/10 03:19:48;;;;;;;;;;;20.90;45.90;;;;;;1482113;40;19932;-60
2021/06/10 03:21:09;;;;;;;;;;;20.90;45.90;;;;;;1480567;40;20269;-60
2021/06/10 03:22:30;;;;;;;;;;;20.90;45.80;;;;;;1479803;40;19940;-60
2021/06/10 03:23:51;;;;;;;;;;;20.90;45.70;;;;;;1482612;40;19932;-60
2021/06/10 03:25:13;;;;;;;;;;;20.90;45.70;;;;;;1482646;40;20169;-61
2021/06/10 03:26:35;;;;;;;;;;;20.90;45.80;;;;;;1482660;40;19952;-60
2021/06/10 03:27:56;;;;;;;;;;;20.90;45.90;;;;;;1480481;40;19984;-61
2021/06/10 03:29:18;;;;;;;;;;;20.80;45.80;;;;;;1480923;40;20307;-60
2021/06/10 03:30:39;;;;;;;;;;;20.90;45.60;;;;;;1483022;40;19948;-61
2021/06/10 03:32:00;;;;;;;;;;;20.90;45.70;;;;;;1481576;40;19937;-61
2021/06/10 03:33:21;;;;;;;;;;;20.90;45.60;;;;;;1480070;40;20198;-60
2021/06/10 03:34:43;;;;;;;;;;;20.90;45.60;;;;;;1479956;40;19947;-61
2021/06/10 03:36:04;;;;;;;;;;;20.90;45.50;;;;;;1482035;40;19928;-60
2021/06/10 03:37:27;;;;;;;;;;;20.90;45.50;;;;;;1480781;40;19948;-61
2021/06/10 03:38:49;;;;;;;;;;;20.80;45.60;;;;;;1481993;40;19945;-60
2021/06/10 03:40:11;;;;;;;;;;;20.80;45.60;;;;;;1480245;40;19929;-61
2021/06/10 03:41:32;;;;;;;;;;;20.80;45.60;;;;;;1480990;40;20177;-60
2021/06/10 03:42:54;;;;;;;;;;;20.80;45.70;;;;;;1480827;40;19940;-60
2021/06/10 03:44:16;;;;;;;;;;;20.80;45.80;;;;;;1481912;40;19937;-60
2021/06/10 03:45:37;;;;;;;;;;;20.80;45.80;;;;;;1481804;40;20155;-60
2021/06/10 03:46:59;;;;;;;;;;;20.80;45.80;;;;;;1481240;40;20292;-60
2021/06/10 03:48:20;;;;;;;;;;;20.80;45.80;;;;;;1476208;40;19933;-60
2021/06/10 03:49:41;;;;;;;;;;;20.80;45.90;;;;;;1481174;40;19932;-61
2021/06/10 03:51:08;;;;;;;;;;;20.80;45.90;;;;;;1481395;40;20247;-60
2021/06/10 03:52:29;;;;;;;;;;;20.80;45.90;;;;;;1480481;40;20187;-60
2021/06/10 03:53:51;;;;;;;;;;;20.80;45.90;;;;;;1482221;40;20194;-60
2021/06/10 03:55:12;;;;;;;;;;;20.80;45.90;;;;;;1482290;40;19936;-60
2021/06/10 03:56:34;;;;;;;;;;;20.80;45.90;;;;;;1481770;40;20300;-60
2021/06/10 03:57:55;;;;;;;;;;;20.70;45.90;;;;;;1482449;40;19928;-60
2021/06/10 03:59:16;;;;;;;;;;;20.80;46.10;;;;;;1482541;40;19940;-61
2021/06/10 04:00:36;;;;;;;;;;;20.80;46.20;;;;;;1479661;40;20018;-60
2021/06/10 04:01:57;;;;;;;;;;;20.80;46.20;;;;;;1482792;40;19940;-61
2021/06/10 04:03:18;;;;;;;;;;;20.90;46.30;;;;;;1484060;40;20260;-60
2021/06/10 04:04:39;;;;;;;;;;;20.80;46.30;;;;;;1481810;40;20257;-60
2021/06/10 04:06:00;;;;;;;;;;;20.80;46.10;;;;;;1482768;40;20386;-60
2021/06/10 04:07:21;;;;;;;;;;;20.80;45.90;;;;;;1480624;40;19984;-60
2021/06/10 04:08:42;;;;;;;;;;;20.80;46.10;;;;;;1482353;40;19943;-61
2021/06/10 04:10:04;;;;;;;;;;;20.80;45.90;;;;;;1482215;40;19936;-61
2021/06/10 04:11:25;;;;;;;;;;;20.80;45.90;;;;;;1481742;40;19948;-60
2021/06/10 04:12:46;;;;;;;;;;;20.80;45.90;;;;;;1483594;40;19964;-60
2021/06/10 04:14:07;;;;;;;;;;;20.70;45.80;;;;;;1481836;40;19932;-60
2021/06/10 04:15:28;;;;;;;;;;;20.70;45.80;;;;;;1482220;40;20257;-60
2021/06/10 04:16:48;;;;;;;;;;;20.70;46.00;;;;;;1480761;40;19936;-60
2021/06/10 04:18:09;;;;;;;;;;;20.70;46.10;;;;;;1477486;40;20181;-60
2021/06/10 04:19:30;;;;;;;;;;;20.70;46.20;;;;;;1480841;40;19929;-61
2021/06/10 04:20:52;;;;;;;;;;;20.70;46.70;;;;;;1480140;40;20173;-60
2021/06/10 04:22:13;;;;;;;;;;;20.70;46.30;;;;;;1482209;40;19940;-60
2021/06/10 04:23:34;;;;;;;;;;;20.70;46.30;;;;;;1483774;40;20206;-61
2021/06/10 04:24:54;;;;;;;;;;;20.70;46.30;;;;;;1482836;40;19932;-60
2021/06/10 04:26:16;;;;;;;;;;;20.70;46.30;;;;;;1483040;40;19940;-60
2021/06/10 04:27:37;;;;;;;;;;;20.70;46.30;;;;;;1482637;40;20241;-60
2021/06/10 04:28:58;;;;;;;;;;;20.70;46.30;;;;;;1483259;40;20311;-60
2021/06/10 04:30:19;;;;;;;;;;;20.70;46.40;;;;;;1482305;40;20489;-60
2021/06/10 04:31:40;;;;;;;;;;;20.80;46.30;;;;;;1479975;40;19940;-61
2021/06/10 04:33:01;;;;;;;;;;;20.80;46.30;;;;;;1480580;40;19933;-60
2021/06/10 04:34:21;;;;;;;;;;;20.80;46.40;;;;;;1480450;40;20165;-60
2021/06/10 04:35:42;;;;;;;;;;;20.80;46.60;;;;;;1481732;40;20002;-60
2021/06/10 04:37:03;;;;;;;;;;;20.80;46.60;;;;;;1479820;40;19949;-61
2021/06/10 04:38:24;;;;;;;;;;;20.80;46.40;;;;;;1480187;40;19945;-60
2021/06/10 04:39:45;;;;;;;;;;;20.80;46.40;;;;;;1480894;40;19935;-60
2021/06/10 04:41:06;;;;;;;;;;;20.80;46.50;;;;;;1480670;40;19932;-60
2021/06/10 04:42:27;;;;;;;;;;;20.80;46.50;;;;;;1481961;40;19937;-60
2021/06/10 04:43:48;;;;;;;;;;;20.80;46.50;;;;;;1480819;40;19939;-60
2021/06/10 04:45:10;;;;;;;;;;;20.80;46.40;;;;;;1480744;40;20199;-60
2021/06/10 04:46:32;;;;;;;;;;;20.80;46.40;;;;;;1478221;40;19982;-61
2021/06/10 04:47:53;;;;;;;;;;;20.80;46.50;;;;;;1481048;40;19962;-60
2021/06/10 04:49:14;;;;;;;;;;;20.80;46.50;;;;;;1481317;40;20069;-60
2021/06/10 04:50:35;;;;;;;;;;;20.80;46.60;;;;;;1480374;40;20177;-61
2021/06/10 04:51:56;;;;;;;;;;;20.90;46.70;;;;;;1483484;40;19939;-60
2021/06/10 04:53:17;;;;;;;;;;;20.90;46.80;;;;;;1480246;40;19933;-60
2021/06/10 04:54:37;;;;;;;;;;;20.90;46.80;;;;;;1479319;40;20250;-60
2021/06/10 04:55:59;;;;;;;;;;;20.90;46.90;;;;;;1486009;39;20265;-61
2021/06/10 04:57:19;;;;;;;;;;;20.90;47.00;;;;;;1482579;39;19956;-60
2021/06/10 04:58:40;;;;;;;;;;;20.90;47.00;;;;;;1482218;40;19943;-61
2021/06/10 05:00:01;;;;;;;;;;;20.90;46.90;;;;;;1481129;40;20263;-60
2021/06/10 05:01:23;;;;;;;;;;;20.90;46.90;;;;;;1480250;40;19941;-60
2021/06/10 05:02:44;;;;;;;;;;;20.90;46.90;;;;;;1480809;40;19941;-60
2021/06/10 05:04:05;;;;;;;;;;;21.00;47.40;;;;;;1482799;40;19936;-60
2021/06/10 05:05:26;;;;;;;;;;;20.90;47.10;;;;;;1481111;40;20018;-61
2021/06/10 05:06:47;;;;;;;;;;;21.00;47.20;;;;;;1482444;40;19943;-60
2021/06/10 05:08:07;;;;;;;;;;;21.00;47.20;;;;;;1483194;40;20025;-60
2021/06/10 05:09:28;;;;;;;;;;;21.00;47.10;;;;;;1480036;40;20264;-60
2021/06/10 05:10:49;;;;;;;;;;;21.00;47.10;;;;;;1480972;40;19947;-60
2021/06/10 05:12:10;;;;;;;;;;;21.00;47.20;;;;;;1480080;40;20107;-61
2021/06/10 05:13:31;;;;;;;;;;;21.00;47.10;;;;;;1481584;40;19932;-61
2021/06/10 05:14:52;;;;;;;;;;;21.00;47.10;;;;;;1477846;40;19928;-60
2021/06/10 05:16:13;;;;;;;;;;;21.10;47.40;;;;;;1479594;40;19946;-61
2021/06/10 05:17:33;;;;;;;;;;;21.10;47.30;;;;;;1482263;40;19928;-61
2021/06/10 05:18:55;;;;;;;;;;;21.20;47.40;;;;;;1480252;40;20228;-60
2021/06/10 05:20:16;;;;;;;;;;;21.10;47.30;;;;;;1484137;40;20426;-60
2021/06/10 05:21:37;;;;;;;;;;;21.10;47.30;;;;;;1481303;40;19936;-60
2021/06/10 05:22:57;;;;;;;;;;;21.10;47.30;;;;;;1480840;40;19928;-60
2021/06/10 05:24:19;;;;;;;;;;;21.10;47.30;;;;;;1478426;40;19956;-61
2021/06/10 05:25:40;;;;;;;;;;;21.10;47.30;;;;;;1480411;40;19961;-61
2021/06/10 05:27:01;;;;;;;;;;;21.10;47.30;;;;;;1480668;40;19986;-61
2021/06/10 05:28:22;;;;;;;;;;;21.20;47.40;;;;;;1477523;40;20241;-61
2021/06/10 05:29:44;;;;;;;;;;;21.20;47.40;;;;;;1480676;40;19940;-61
2021/06/10 05:31:07;;;;;;;;;;;21.20;47.40;;;;;;1481447;40;19951;-60
2021/06/10 05:32:27;;;;;;;;;;;21.20;47.40;;;;;;1479966;40;19936;-60
2021/06/10 05:33:50;;;;;;;;;;;21.20;47.40;;;;;;1483017;40;19932;-61
2021/06/10 05:35:11;;;;;;;;;;;21.30;47.40;;;;;;1479844;40;19976;-60
2021/06/10 05:36:32;;;;;;;;;;;21.30;47.40;;;;;;1482879;40;19929;-60
2021/06/10 05:37:52;;;;;;;;;;;21.30;47.20;;;;;;1481099;40;19932;-60
2021/06/10 05:39:13;;;;;;;;;;;21.40;47.30;;;;;;1480081;40;20246;-61
2021/06/10 05:40:34;;;;;;;;;;;21.30;47.30;;;;;;1479593;40;20072;-60
2021/06/10 05:41:56;;;;;;;;;;;21.40;47.30;;;;;;1481305;40;19944;-60
2021/06/10 05:43:17;;;;;;;;;;;21.40;47.30;;;;;;1479271;40;20242;-60
2021/06/10 05:44:37;;;;;;;;;;;21.40;47.20;;;;;;1482461;40;20150;-60
2021/06/10 05:45:58;;;;;;;;;;;21.40;47.20;;;;;;1480968;40;20503;-60
2021/06/10 05:47:19;;;;;;;;;;;21.40;47.10;;;;;;1480301;40;20033;-60
2021/06/10 05:48:40;;;;;;;;;;;21.50;47.10;;;;;;1480001;40;20226;-60
2021/06/10 05:50:01;;;;;;;;;;;21.50;47.20;;;;;;1477462;40;19965;-60
2021/06/10 05:51:21;;;;;;;;;;;21.50;47.40;;;;;;1479656;40;19970;-60
2021/06/10 05:52:43;;;;;;;;;;;21.50;47.10;;;;;;1480043;40;20018;-61
2021/06/10 05:54:04;;;;;;;;;;;21.50;47.10;;;;;;1481692;40;19956;-61
2021/06/10 05:55:25;;;;;;;;;;;21.50;47.10;;;;;;1480425;40;19940;-60
2021/06/10 05:56:46;;;;;;;;;;;21.50;47.10;;;;;;1481524;40;20025;-61
2021/06/10 05:58:06;;;;;;;;;;;21.50;47.10;;;;;;1480223;40;20197;-61
2021/06/10 05:59:27;;;;;;;;;;;21.60;47.20;;;;;;1481909;40;19936;-61
2021/06/10 06:00:50;;;;;;;;;;;21.60;47.20;;;;;;1482366;40;20269;-60
2021/06/10 06:02:10;;;;;;;;;;;21.60;47.10;;;;;;1481634;40;19944;-60
2021/06/10 06:03:32;;;;;;;;;;;21.60;47.20;;;;;;1480820;40;19936;-61
2021/06/10 06:04:53;;;;;;;;;;;21.60;47.20;;;;;;1482090;40;19956;-60
2021/06/10 06:06:17;;;;;;;;;;;21.70;47.20;;;;;;1482474;40;20269;-60
2021/06/10 06:07:38;;;;;;;;;;;21.70;47.20;;;;;;1481681;40;20195;-60
2021/06/10 06:08:59;;;;;;;;;;;21.70;47.30;;;;;;1482252;40;19934;-60
2021/06/10 06:10:20;;;;;;;;;;;21.70;47.20;;;;;;1482619;40;20013;-60
2021/06/10 06:11:41;;;;;;;;;;;21.80;47.30;;;;;;1480786;40;19972;-61
2021/06/10 06:13:03;;;;;;;;;;;21.80;47.30;;;;;;1479963;40;20231;-61
2021/06/10 06:14:28;;;;;;;;;;;21.80;47.20;;;;;;1479672;40;20022;-60
2021/06/10 06:15:50;;;;;;;;;;;21.80;47.40;;;;;;1480432;40;19954;-60
2021/06/10 06:17:12;;;;;;;;;;;21.90;47.30;;;;;;1480909;40;19972;-61
2021/06/10 06:18:33;;;;;;;;;;;22.00;47.40;;;;;;1480029;40;20331;-60
2021/06/10 06:19:57;;;;;;;;;;;21.90;47.40;;;;;;1482107;40;19980;-61
2021/06/10 06:21:17;;;;;;;;;;;21.90;47.40;;;;;;1480834;40;20213;-61
2021/06/10 06:22:41;;;;;;;;;;;22.10;47.50;;;;;;1480483;40;19936;-60
2021/06/10 06:24:03;;;;;;;;;;;22.00;47.50;;;;;;1479649;40;20509;-61
2021/06/10 06:25:23;;;;;;;;;;;22.00;47.50;;;;;;1482510;40;20961;-60
2021/06/10 06:26:44;;;;;;;;;;;22.10;47.50;;;;;;1480870;40;19937;-61
2021/06/10 06:28:05;;;;;;;;;;;22.10;47.50;;;;;;1481690;40;20181;-61
2021/06/10 06:29:26;;;;;;;;;;;22.10;47.50;;;;;;1480344;40;19936;-60
2021/06/10 06:30:47;;;;;;;;;;;22.20;47.50;;;;;;1479653;40;20420;-60
2021/06/10 06:32:08;;;;;;;;;;;22.20;47.50;;;;;;1480891;40;20250;-60
2021/06/10 06:33:29;;;;;;;;;;;22.20;47.50;;;;;;1482568;40;19936;-61
2021/06/10 06:34:49;;;;;;;;;;;22.30;47.50;;;;;;1482186;40;19936;-61
2021/06/10 06:36:10;;;;;;;;;;;22.30;47.50;;;;;;1478721;40;20448;-61
2021/06/10 06:37:31;;;;;;;;;;;22.30;47.50;;;;;;1480425;40;20311;-60
2021/06/10 06:38:52;;;;;;;;;;;22.30;47.50;;;;;;1479870;40;19935;-60
2021/06/10 06:40:13;;;;;;;;;;;22.40;47.50;;;;;;1472759;40;20277;-61
2021/06/10 06:41:35;;;;;;;;;;;22.40;47.50;;;;;;1475221;40;19952;-60
2021/06/10 06:42:56;;;;;;;;;;;22.50;47.60;;;;;;1477614;40;19928;-61
2021/06/10 06:44:17;;;;;;;;;;;22.50;47.60;;;;;;1477030;40;19936;-61
2021/06/10 06:45:38;;;;;;;;;;;22.50;47.60;;;;;;1477396;40;19971;-61
2021/06/10 06:46:59;;;;;;;;;;;22.50;47.60;;;;;;1477435;40;19948;-61
2021/06/10 06:48:21;;;;;;;;;;;22.60;47.70;;;;;;1478075;40;19948;-61
2021/06/10 06:49:42;;;;;;;;;;;22.60;47.70;;;;;;1477635;40;20387;-62
2021/06/10 06:51:03;;;;;;;;;;;22.60;47.50;;;;;;1476954;40;20039;-60
2021/06/10 06:52:24;;;;;;;;;;;22.60;47.40;;;;;;1476063;40;20021;-61
2021/06/10 06:53:45;;;;;;;;;;;22.70;47.40;;;;;;1477288;40;19945;-60
2021/06/10 06:55:06;;;;;;;;;;;22.70;47.40;;;;;;1476388;40;19970;-60
2021/06/10 06:56:27;;;;;;;;;;;22.70;47.30;;;;;;1477174;40;20024;-60
2021/06/10 06:57:48;;;;;;;;;;;22.80;47.30;;;;;;1477536;40;19968;-60
2021/06/10 06:59:09;;;;;;;;;;;22.80;47.10;;;;;;1477734;40;20038;-60
2021/06/10 07:00:30;;;;;;;;;;;22.90;47.10;;;;;;1480913;40;20235;-61
2021/06/10 07:01:50;;;;;;;;;;;22.90;47.00;;;;;;1478699;40;19947;-60
2021/06/10 07:03:11;;;;;;;;;;;22.90;47.00;;;;;;1479790;40;19932;-60
2021/06/10 07:04:32;;;;;;;;;;;23.00;47.00;;;;;;1479832;40;19933;-60
2021/06/10 07:05:53;;;;;;;;;;;23.00;46.90;;;;;;1480592;40;19948;-60
2021/06/10 07:07:14;;;;;;;;;;;23.00;46.90;;;;;;1480071;40;19952;-60
2021/06/10 07:08:35;;;;;;;;;;;23.10;47.00;;;;;;1478630;40;20018;-60
2021/06/10 07:09:55;;;;;;;;;;;23.10;47.00;;;;;;1482028;40;19944;-61
2021/06/10 07:11:16;;;;;;;;;;;23.10;47.00;;;;;;1480841;40;20225;-60
2021/06/10 07:12:37;;;;;;;;;;;23.20;47.00;;;;;;1479574;40;19945;-60
2021/06/10 07:13:58;;;;;;;;;;;23.20;46.90;;;;;;1481048;40;19944;-60
2021/06/10 07:15:19;;;;;;;;;;;23.20;46.90;;;;;;1481980;40;20040;-60
2021/06/10 07:16:41;;;;;;;;;;;23.20;46.80;;;;;;1475125;40;19945;-60
2021/06/10 07:18:02;;;;;;;;;;;23.30;46.80;;;;;;1478718;40;19940;-60
2021/06/10 07:19:22;;;;;;;;;;;23.30;46.80;;;;;;1480907;40;19933;-60
2021/06/10 07:20:43;;;;;;;;;;;23.40;46.90;;;;;;1480686;40;19956;-61
2021/06/10 07:22:04;;;;;;;;;;;23.40;46.70;;;;;;1481880;40;19932;-61
2021/06/10 07:23:25;;;;;;;;;;;23.40;47.00;;;;;;1481058;40;19944;-60
2021/06/10 07:24:47;;;;;;;;;;;23.50;46.50;;;;;;1479626;40;20059;-61
2021/06/10 07:26:07;;;;;;;;;;;23.50;46.60;;;;;;1482246;40;19928;-60
2021/06/10 07:27:28;;;;;;;;;;;23.40;46.50;;;;;;1479749;40;19936;-60
2021/06/10 07:28:49;;;;;;;;;;;23.60;46.60;;;;;;1482627;40;19944;-60
2021/06/10 07:30:10;;;;;;;;;;;23.60;46.60;;;;;;1481356;40;19998;-60
2021/06/10 07:31:31;;;;;;;;;;;23.60;46.60;;;;;;1481497;40;19936;-60
2021/06/10 07:32:52;;;;;;;;;;;23.70;46.70;;;;;;1482590;40;20327;-60
2021/06/10 07:34:14;;;;;;;;;;;23.70;46.70;;;;;;1482958;40;20029;-60
2021/06/10 07:35:35;;;;;;;;;;;23.70;46.70;;;;;;1481478;40;19940;-60
2021/06/10 07:36:55;;;;;;;;;;;23.80;46.70;;;;;;1482992;40;19933;-61
2021/06/10 07:38:16;;;;;;;;;;;23.80;46.70;;;;;;1482279;40;20021;-60
2021/06/10 07:39:37;;;;;;;;;;;23.90;46.70;;;;;;1483140;40;19929;-60
2021/06/10 07:40:58;;;;;;;;;;;23.90;46.70;;;;;;1483520;40;20517;-60
2021/06/10 07:42:18;;;;;;;;;;;23.90;46.70;;;;;;1480411;40;20054;-61
2021/06/10 07:43:39;;;;;;;;;;;23.90;46.60;;;;;;1482128;40;19943;-60
2021/06/10 07:45:00;;;;;;;;;;;24.00;46.30;;;;;;1484390;40;19940;-60
2021/06/10 07:46:21;;;;;;;;;;;24.00;46.50;;;;;;1482556;40;19947;-60
2021/06/10 07:47:42;;;;;;;;;;;24.10;46.40;;;;;;1482576;40;19943;-60
2021/06/10 07:49:03;;;;;;;;;;;24.10;46.50;;;;;;1476237;40;20303;-60
2021/06/10 07:50:24;;;;;;;;;;;24.10;46.50;;;;;;1485077;40;19942;-60
2021/06/10 07:51:44;;;;;;;;;;;24.10;46.40;;;;;;1481183;40;20347;-61
2021/06/10 07:53:05;;;;;;;;;;;24.20;46.40;;;;;;1481866;40;20216;-61